Marine Rouge — JG5115 — position and weather

sailwx.info

Track history (hours):
 
Tides and Currents Weather Stations Pressure Air Temp Water Temp Dewpoint Dewpoint Depression Visibility Wind Speed Wind Dir Waves Ship Positions

Marine Rouge

Last reported at 2015-Jan-28 11:33 UTC. Time now 2015-Jan-28 16:12 UTC.
Position N 35°28' E 139°39'.

Length 52 m; draft 2.8 m.

Type: Passenger vessel. MMSI: 431000518.

Date/timePositionNaut miles runAvg speedWind from/ knotsBaromVisibWave heightAir tempDewpointWater temp
2015-Jan-28 11:33N 35°28' E 139°39'3 3.4
2015-Jan-28 10:34N 35°27' E 139°43'3 3.1
2015-Jan-28 09:33N 35°27' E 139°39'0 0.0
2015-Jan-28 08:33N 35°27' E 139°39'3 3.1
2015-Jan-28 07:33N 35°27' E 139°43'3 3.1
2015-Jan-28 06:33N 35°27' E 139°39'0 0.3
2015-Jan-28 05:33N 35°27' E 139°39'0 0.1
2015-Jan-28 04:33N 35°27' E 139°39'1 1.4
2015-Jan-28 03:33N 35°27' E 139°41'1 1.4
2015-Jan-28 02:33N 35°27' E 139°39'0 0.0
2015-Jan-28 01:33N 35°27' E 139°39'0 0.0
2015-Jan-28 00:33N 35°27' E 139°39'0 0.0
2015-Jan-27 12:33N 35°27' E 139°39'1 0.7
2015-Jan-27 11:33N 35°28' E 139°39'1 0.7
2015-Jan-27 10:33N 35°27' E 139°39'1 0.5
2015-Jan-27 09:33N 35°27' E 139°39'0 0.0
2015-Jan-27 08:33N 35°27' E 139°39'1 0.7
2015-Jan-27 07:33N 35°27' E 139°39'1 0.7
2015-Jan-27 06:33N 35°27' E 139°39'0 0.1
2015-Jan-27 05:34N 35°27' E 139°39'0 0.1
2015-Jan-27 04:33N 35°27' E 139°39'1 0.6
2015-Jan-27 03:33N 35°27' E 139°39'1 0.6
2015-Jan-27 02:33N 35°27' E 139°39'0 0.0
2015-Jan-27 01:33N 35°27' E 139°39'0 0.0
2015-Jan-26 12:33N 35°27' E 139°39'1 1.0
2015-Jan-26 11:34N 35°28' E 139°39'0 0.5
2015-Jan-26 10:34N 35°27' E 139°40'1 0.8
2015-Jan-26 09:34N 35°27' E 139°39'1 0.9
2015-Jan-26 08:34N 35°27' E 139°40'1 0.9
2015-Jan-26 07:34N 35°27' E 139°39'0 0.0
2015-Jan-26 06:34N 35°27' E 139°39'0 0.1
2015-Jan-26 05:34N 35°27' E 139°39'0 0.1
2015-Jan-26 04:34N 35°27' E 139°39'1 0.5
2015-Jan-26 03:34N 35°27' E 139°39'1 0.5
2015-Jan-26 02:34N 35°27' E 139°39'0 0.0
2015-Jan-26 01:34N 35°27' E 139°39'0 0.0
2015-Jan-26 00:34N 35°27' E 139°39'1 0.1
2015-Jan-25 11:33N 35°28' E 139°40'1 1.2
2015-Jan-25 10:33N 35°27' E 139°39'1 0.5
2015-Jan-25 09:33N 35°27' E 139°39'1 1.5
2015-Jan-25 08:33N 35°28' E 139°40'1 1.4
2015-Jan-25 07:34N 35°27' E 139°39'1 0.5
2015-Jan-25 06:33N 35°27' E 139°39'0 0.1
2015-Jan-25 05:34N 35°27' E 139°39'0 0.1
2015-Jan-25 04:33N 35°27' E 139°39'1 0.5
2015-Jan-25 03:34N 35°27' E 139°39'1 0.5
2015-Jan-25 02:33N 35°27' E 139°39'0 0.0
2015-Jan-25 01:33N 35°27' E 139°39'0 0.0
2015-Jan-25 00:33N 35°27' E 139°39'1 0.0
2015-Jan-24 12:34N 35°27' E 139°39'2 2.0
2015-Jan-24 11:33N 35°28' E 139°41'2 2.3
2015-Jan-24 10:33N 35°27' E 139°39'1 0.5
2015-Jan-24 09:34N 35°27' E 139°39'1 0.7
2015-Jan-24 08:33N 35°27' E 139°39'0 0.4
2015-Jan-24 07:33N 35°27' E 139°39'1 0.6
2015-Jan-24 06:33N 35°27' E 139°39'0 0.1
2015-Jan-24 05:33N 35°27' E 139°39'0 0.1
2015-Jan-24 04:33N 35°27' E 139°39'1 0.7
2015-Jan-24 03:33N 35°27' E 139°39'1 0.7
2015-Jan-24 02:33N 35°27' E 139°39'0 0.0
2015-Jan-24 01:33N 35°27' E 139°39'1 0.1
2015-Jan-23 11:33N 35°28' E 139°39'2 1.8
2015-Jan-23 10:33N 35°27' E 139°41'1 1.4
2015-Jan-23 09:33N 35°27' E 139°39'0 0.0
2015-Jan-23 08:33N 35°27' E 139°39'3 3.1
2015-Jan-23 07:33N 35°28' E 139°43'3 3.1
2015-Jan-23 06:33N 35°27' E 139°39'0 0.1
2015-Jan-23 05:33N 35°27' E 139°39'2 1.6
2015-Jan-23 04:33N 35°28' E 139°40'1 1.4
2015-Jan-23 03:33N 35°28' E 139°39'1 1.1
2015-Jan-23 02:33N 35°27' E 139°39'0 0.0
2015-Jan-23 01:33N 35°27' E 139°39'1 0.1
2015-Jan-22 11:33N 35°28' E 139°39'2 1.7
2015-Jan-22 10:33N 35°27' E 139°41'1 1.3
2015-Jan-22 09:33N 35°27' E 139°39'0 0.0
2015-Jan-22 08:33N 35°27' E 139°39'1 0.6
2015-Jan-22 07:33N 35°27' E 139°39'1 0.6
2015-Jan-22 06:33N 35°27' E 139°39'0 0.0
2015-Jan-22 05:33N 35°27' E 139°39'0 0.0
2015-Jan-22 04:33N 35°27' E 139°39'1 0.6
2015-Jan-22 03:33N 35°27' E 139°39'1 0.6
2015-Jan-22 02:33N 35°27' E 139°39'0 0.0
2015-Jan-22 01:33N 35°27' E 139°39'0 0.0
2015-Jan-22 00:33N 35°27' E 139°39'1 0.1
2015-Jan-21 11:33N 35°28' E 139°39'1 1.0
2015-Jan-21 10:33N 35°27' E 139°40'1 1.1
2015-Jan-21 09:33N 35°27' E 139°39'0 0.0
2015-Jan-21 08:33N 35°27' E 139°39'1 0.7
2015-Jan-21 07:33N 35°27' E 139°39'1 0.7
2015-Jan-21 06:33N 35°27' E 139°39'0 0.1
2015-Jan-21 05:34N 35°27' E 139°39'0 0.1
2015-Jan-21 04:33N 35°27' E 139°39'0 0.0
2015-Jan-21 03:33N 35°27' E 139°39'0 0.0
2015-Jan-21 02:33N 35°27' E 139°39'0 0.0
2015-Jan-21 01:33N 35°27' E 139°39'0 0.0
2015-Jan-21 00:33N 35°27' E 139°39'1 0.1
2015-Jan-20 11:34N 35°28' E 139°40'1 0.6
2015-Jan-20 10:34N 35°27' E 139°39'1 0.6
2015-Jan-20 09:33N 35°27' E 139°39'0 0.0
2015-Jan-20 08:33N 35°27' E 139°39'3 2.8
2015-Jan-20 07:34N 35°29' E 139°42'3 2.8
2015-Jan-20 06:34N 35°27' E 139°39'0 0.1
2015-Jan-20 05:33N 35°27' E 139°39'0 0.1
2015-Jan-20 04:33N 35°27' E 139°39'1 0.5
2015-Jan-20 03:33N 35°27' E 139°39'1 0.5
2015-Jan-20 02:33N 35°27' E 139°39'0 0.0
2015-Jan-20 01:33N 35°27' E 139°39'0 0.0
2015-Jan-20 00:34N 35°27' E 139°39'1 0.1
2015-Jan-19 11:34N 35°28' E 139°40'1 0.9
2015-Jan-19 10:33N 35°27' E 139°39'1 0.6
2015-Jan-19 09:34N 35°27' E 139°39'0 0.0
2015-Jan-19 08:34N 35°27' E 139°39'3 2.8
2015-Jan-19 07:34N 35°28' E 139°42'3 2.8
2015-Jan-19 06:33N 35°27' E 139°39'0 0.1
2015-Jan-19 05:34N 35°27' E 139°39'0 0.1
2015-Jan-19 04:34N 35°27' E 139°39'1 0.5
2015-Jan-19 03:33N 35°27' E 139°39'1 0.5
2015-Jan-19 02:33N 35°27' E 139°39'0 0.0
2015-Jan-19 01:33N 35°27' E 139°39'0 0.0
2015-Jan-19 00:34N 35°27' E 139°39'1 0.1
2015-Jan-18 11:33N 35°28' E 139°39'  
Track history (hours):
 
Tides and Currents Weather Stations Pressure Air Temp Water Temp Dewpoint Dewpoint Depression Visibility Wind Speed Wind Dir Waves Ship Positions

Marine Rouge

Last reported at 2015-Jan-28 11:33 UTC. Time now 2015-Jan-28 16:12 UTC.
Position N 35°28' E 139°39'.

Length 52 m; draft 2.8 m.

Type: Passenger vessel. MMSI: 431000518.

Date/timePositionNaut miles runAvg speedWind from/ knotsBaromVisibWave heightAir tempDewpointWater temp
2015-Jan-28 11:33N 35°28' E 139°39'3 3.4
2015-Jan-28 10:34N 35°27' E 139°43'3 3.1
2015-Jan-28 09:33N 35°27' E 139°39'0 0.0
2015-Jan-28 08:33N 35°27' E 139°39'3 3.1
2015-Jan-28 07:33N 35°27' E 139°43'3 3.1
2015-Jan-28 06:33N 35°27' E 139°39'0 0.3
2015-Jan-28 05:33N 35°27' E 139°39'0 0.1
2015-Jan-28 04:33N 35°27' E 139°39'1 1.4
2015-Jan-28 03:33N 35°27' E 139°41'1 1.4
2015-Jan-28 02:33N 35°27' E 139°39'0 0.0
2015-Jan-28 01:33N 35°27' E 139°39'0 0.0
2015-Jan-28 00:33N 35°27' E 139°39'0 0.0
2015-Jan-27 12:33N 35°27' E 139°39'1 0.7
2015-Jan-27 11:33N 35°28' E 139°39'1 0.7
2015-Jan-27 10:33N 35°27' E 139°39'1 0.5
2015-Jan-27 09:33N 35°27' E 139°39'0 0.0
2015-Jan-27 08:33N 35°27' E 139°39'1 0.7
2015-Jan-27 07:33N 35°27' E 139°39'1 0.7
2015-Jan-27 06:33N 35°27' E 139°39'0 0.1
2015-Jan-27 05:34N 35°27' E 139°39'0 0.1
2015-Jan-27 04:33N 35°27' E 139°39'1 0.6
2015-Jan-27 03:33N 35°27' E 139°39'1 0.6
2015-Jan-27 02:33N 35°27' E 139°39'0 0.0
2015-Jan-27 01:33N 35°27' E 139°39'0 0.0
2015-Jan-26 12:33N 35°27' E 139°39'1 1.0
2015-Jan-26 11:34N 35°28' E 139°39'0 0.5
2015-Jan-26 10:34N 35°27' E 139°40'1 0.8
2015-Jan-26 09:34N 35°27' E 139°39'1 0.9
2015-Jan-26 08:34N 35°27' E 139°40'1 0.9
2015-Jan-26 07:34N 35°27' E 139°39'0 0.0
2015-Jan-26 06:34N 35°27' E 139°39'0 0.1
2015-Jan-26 05:34N 35°27' E 139°39'0 0.1
2015-Jan-26 04:34N 35°27' E 139°39'1 0.5
2015-Jan-26 03:34N 35°27' E 139°39'1 0.5
2015-Jan-26 02:34N 35°27' E 139°39'0 0.0
2015-Jan-26 01:34N 35°27' E 139°39'0 0.0
2015-Jan-26 00:34N 35°27' E 139°39'1 0.1
2015-Jan-25 11:33N 35°28' E 139°40'1 1.2
2015-Jan-25 10:33N 35°27' E 139°39'1 0.5
2015-Jan-25 09:33N 35°27' E 139°39'1 1.5
2015-Jan-25 08:33N 35°28' E 139°40'1 1.4
2015-Jan-25 07:34N 35°27' E 139°39'1 0.5
2015-Jan-25 06:33N 35°27' E 139°39'0 0.1
2015-Jan-25 05:34N 35°27' E 139°39'0 0.1
2015-Jan-25 04:33N 35°27' E 139°39'1 0.5
2015-Jan-25 03:34N 35°27' E 139°39'1 0.5
2015-Jan-25 02:33N 35°27' E 139°39'0 0.0
2015-Jan-25 01:33N 35°27' E 139°39'0 0.0
2015-Jan-25 00:33N 35°27' E 139°39'1 0.0
2015-Jan-24 12:34N 35°27' E 139°39'2 2.0
2015-Jan-24 11:33N 35°28' E 139°41'2 2.3
2015-Jan-24 10:33N 35°27' E 139°39'1 0.5
2015-Jan-24 09:34N 35°27' E 139°39'1 0.7
2015-Jan-24 08:33N 35°27' E 139°39'0 0.4
2015-Jan-24 07:33N 35°27' E 139°39'1 0.6
2015-Jan-24 06:33N 35°27' E 139°39'0 0.1
2015-Jan-24 05:33N 35°27' E 139°39'0 0.1
2015-Jan-24 04:33N 35°27' E 139°39'1 0.7
2015-Jan-24 03:33N 35°27' E 139°39'1 0.7
2015-Jan-24 02:33N 35°27' E 139°39'0 0.0
2015-Jan-24 01:33N 35°27' E 139°39'1 0.1
2015-Jan-23 11:33N 35°28' E 139°39'2 1.8
2015-Jan-23 10:33N 35°27' E 139°41'1 1.4
2015-Jan-23 09:33N 35°27' E 139°39'0 0.0
2015-Jan-23 08:33N 35°27' E 139°39'3 3.1
2015-Jan-23 07:33N 35°28' E 139°43'3 3.1
2015-Jan-23 06:33N 35°27' E 139°39'0 0.1
2015-Jan-23 05:33N 35°27' E 139°39'2 1.6
2015-Jan-23 04:33N 35°28' E 139°40'1 1.4
2015-Jan-23 03:33N 35°28' E 139°39'1 1.1
2015-Jan-23 02:33N 35°27' E 139°39'0 0.0
2015-Jan-23 01:33N 35°27' E 139°39'1 0.1
2015-Jan-22 11:33N 35°28' E 139°39'2 1.7
2015-Jan-22 10:33N 35°27' E 139°41'1 1.3
2015-Jan-22 09:33N 35°27' E 139°39'0 0.0
2015-Jan-22 08:33N 35°27' E 139°39'1 0.6
2015-Jan-22 07:33N 35°27' E 139°39'1 0.6
2015-Jan-22 06:33N 35°27' E 139°39'0 0.0
2015-Jan-22 05:33N 35°27' E 139°39'0 0.0
2015-Jan-22 04:33N 35°27' E 139°39'1 0.6
2015-Jan-22 03:33N 35°27' E 139°39'1 0.6
2015-Jan-22 02:33N 35°27' E 139°39'0 0.0
2015-Jan-22 01:33N 35°27' E 139°39'0 0.0
2015-Jan-22 00:33N 35°27' E 139°39'1 0.1
2015-Jan-21 11:33N 35°28' E 139°39'1 1.0
2015-Jan-21 10:33N 35°27' E 139°40'1 1.1
2015-Jan-21 09:33N 35°27' E 139°39'0 0.0
2015-Jan-21 08:33N 35°27' E 139°39'1 0.7
2015-Jan-21 07:33N 35°27' E 139°39'1 0.7
2015-Jan-21 06:33N 35°27' E 139°39'0 0.1
2015-Jan-21 05:34N 35°27' E 139°39'0 0.1
2015-Jan-21 04:33N 35°27' E 139°39'0 0.0
2015-Jan-21 03:33N 35°27' E 139°39'0 0.0
2015-Jan-21 02:33N 35°27' E 139°39'0 0.0
2015-Jan-21 01:33N 35°27' E 139°39'0 0.0
2015-Jan-21 00:33N 35°27' E 139°39'1 0.1
2015-Jan-20 11:34N 35°28' E 139°40'1 0.6
2015-Jan-20 10:34N 35°27' E 139°39'1 0.6
2015-Jan-20 09:33N 35°27' E 139°39'0 0.0
2015-Jan-20 08:33N 35°27' E 139°39'3 2.8
2015-Jan-20 07:34N 35°29' E 139°42'3 2.8
2015-Jan-20 06:34N 35°27' E 139°39'0 0.1
2015-Jan-20 05:33N 35°27' E 139°39'0 0.1
2015-Jan-20 04:33N 35°27' E 139°39'1 0.5
2015-Jan-20 03:33N 35°27' E 139°39'1 0.5
2015-Jan-20 02:33N 35°27' E 139°39'0 0.0
2015-Jan-20 01:33N 35°27' E 139°39'0 0.0
2015-Jan-20 00:34N 35°27' E 139°39'1 0.1
2015-Jan-19 11:34N 35°28' E 139°40'1 0.9
2015-Jan-19 10:33N 35°27' E 139°39'1 0.6
2015-Jan-19 09:34N 35°27' E 139°39'0 0.0
2015-Jan-19 08:34N 35°27' E 139°39'3 2.8
2015-Jan-19 07:34N 35°28' E 139°42'3 2.8
2015-Jan-19 06:33N 35°27' E 139°39'0 0.1
2015-Jan-19 05:34N 35°27' E 139°39'0 0.1
2015-Jan-19 04:34N 35°27' E 139°39'1 0.5
2015-Jan-19 03:33N 35°27' E 139°39'1 0.5
2015-Jan-19 02:33N 35°27' E 139°39'0 0.0
2015-Jan-19 01:33N 35°27' E 139°39'0 0.0
2015-Jan-19 00:34N 35°27' E 139°39'1 0.1
2015-Jan-18 11:33N 35°28' E 139°39'  

Dump ship's entire track history